sensor_id;sensor_type;location;lat;lon;timestamp;temperature;humidity
7388;DHT22;3735;50.136;11.062;2023-01-10T00:00:52;4.60;99.90
7388;DHT22;3735;50.136;11.062;2023-01-10T00:03:18;4.60;99.90
7388;DHT22;3735;50.136;11.062;2023-01-10T00:05:44;4.60;99.90
7388;DHT22;3735;50.136;11.062;2023-01-10T00:08:14;4.60;99.90
7388;DHT22;3735;50.136;11.062;2023-01-10T00:10:41;4.60;99.90
7388;DHT22;3735;50.136;11.062;2023-01-10T00:13:15;4.60;99.90
7388;DHT22;3735;50.136;11.062;2023-01-10T00:15:53;4.60;99.90
7388;DHT22;3735;50.136;11.062;2023-01-10T00:18:20;4.60;99.90
7388;DHT22;3735;50.136;11.062;2023-01-10T00:20:48;4.60;99.90
7388;DHT22;3735;50.136;11.062;2023-01-10T00:23:14;4.60;99.90
7388;DHT22;3735;50.136;11.062;2023-01-10T00:25:41;4.60;99.90
7388;DHT22;3735;50.136;11.062;2023-01-10T00:28:07;4.60;99.90
7388;DHT22;3735;50.136;11.062;2023-01-10T00:30:47;4.60;99.90
7388;DHT22;3735;50.136;11.062;2023-01-10T00:33:20;4.60;99.90
7388;DHT22;3735;50.136;11.062;2023-01-10T00:35:47;4.60;99.90
7388;DHT22;3735;50.136;11.062;2023-01-10T00:38:13;4.60;99.90
7388;DHT22;3735;50.136;11.062;2023-01-10T00:40:45;4.60;99.90
7388;DHT22;3735;50.136;11.062;2023-01-10T00:43:11;4.60;99.90
7388;DHT22;3735;50.136;11.062;2023-01-10T00:46:12;4.60;99.90
7388;DHT22;3735;50.136;11.062;2023-01-10T00:48:38;4.60;99.90
7388;DHT22;3735;50.136;11.062;2023-01-10T00:51:04;4.50;99.90
7388;DHT22;3735;50.136;11.062;2023-01-10T00:53:30;4.50;99.90
7388;DHT22;3735;50.136;11.062;2023-01-10T00:55:56;4.50;99.90
7388;DHT22;3735;50.136;11.062;2023-01-10T00:58:22;4.50;99.90
7388;DHT22;3735;50.136;11.062;2023-01-10T01:00:49;4.50;99.90
7388;DHT22;3735;50.136;11.062;2023-01-10T01:03:16;4.50;99.90
7388;DHT22;3735;50.136;11.062;2023-01-10T01:05:45;4.50;99.90
7388;DHT22;3735;50.136;11.062;2023-01-10T01:08:14;4.50;99.90
7388;DHT22;3735;50.136;11.062;2023-01-10T01:10:41;4.60;99.90
7388;DHT22;3735;50.136;11.062;2023-01-10T01:13:12;4.60;99.90
7388;DHT22;3735;50.136;11.062;2023-01-10T01:15:38;4.60;99.90
7388;DHT22;3735;50.136;11.062;2023-01-10T01:18:05;4.60;99.90
7388;DHT22;3735;50.136;11.062;2023-01-10T01:20:31;4.60;99.90
7388;DHT22;3735;50.136;11.062;2023-01-10T01:22:57;4.60;99.90
7388;DHT22;3735;50.136;11.062;2023-01-10T01:25:25;4.60;99.90
7388;DHT22;3735;50.136;11.062;2023-01-10T01:27:51;4.60;99.90
7388;DHT22;3735;50.136;11.062;2023-01-10T01:30:17;4.60;99.90
7388;DHT22;3735;50.136;11.062;2023-01-10T01:32:43;4.60;99.90
7388;DHT22;3735;50.136;11.062;2023-01-10T01:35:12;4.60;99.90
7388;DHT22;3735;50.136;11.062;2023-01-10T01:37:40;4.60;99.90
7388;DHT22;3735;50.136;11.062;2023-01-10T01:40:08;4.60;99.90
7388;DHT22;3735;50.136;11.062;2023-01-10T01:42:43;4.60;99.90
7388;DHT22;3735;50.136;11.062;2023-01-10T01:47:58;4.70;99.90
7388;DHT22;3735;50.136;11.062;2023-01-10T01:53:30;4.70;99.90
7388;DHT22;3735;50.136;11.062;2023-01-10T01:59:06;4.70;99.90
7388;DHT22;3735;50.136;11.062;2023-01-10T02:01:40;4.70;99.90
7388;DHT22;3735;50.136;11.062;2023-01-10T02:04:18;4.70;99.90
7388;DHT22;3735;50.136;11.062;2023-01-10T02:06:50;4.80;99.90
7388;DHT22;3735;50.136;11.062;2023-01-10T02:09:28;4.80;99.90
7388;DHT22;3735;50.136;11.062;2023-01-10T02:12:02;4.80;99.90
7388;DHT22;3735;50.136;11.062;2023-01-10T02:14:32;4.80;99.90
7388;DHT22;3735;50.136;11.062;2023-01-10T02:16:59;4.80;99.90
7388;DHT22;3735;50.136;11.062;2023-01-10T02:37:15;4.80;99.90
7388;DHT22;3735;50.136;11.062;2023-01-10T02:40:23;4.80;99.90
7388;DHT22;3735;50.136;11.062;2023-01-10T02:43:14;4.80;99.90
7388;DHT22;3735;50.136;11.062;2023-01-10T02:46:04;4.80;99.90
7388;DHT22;3735;50.136;11.062;2023-01-10T02:48:33;4.80;99.90
7388;DHT22;3735;50.136;11.062;2023-01-10T02:51:18;4.80;99.90
7388;DHT22;3735;50.136;11.062;2023-01-10T02:54:08;4.80;99.90
7388;DHT22;3735;50.136;11.062;2023-01-10T03:05:53;4.70;99.90
7388;DHT22;3735;50.136;11.062;2023-01-10T03:08:55;4.80;99.90
7388;DHT22;3735;50.136;11.062;2023-01-10T03:11:29;4.70;99.90
7388;DHT22;3735;50.136;11.062;2023-01-10T03:16:47;4.70;99.90
7388;DHT22;3735;50.136;11.062;2023-01-10T03:19:20;4.80;99.90
7388;DHT22;3735;50.136;11.062;2023-01-10T03:21:50;4.80;99.90
7388;DHT22;3735;50.136;11.062;2023-01-10T03:24:37;4.80;99.90
7388;DHT22;3735;50.136;11.062;2023-01-10T03:30:23;4.80;99.90
7388;DHT22;3735;50.136;11.062;2023-01-10T03:32:54;4.80;99.90
7388;DHT22;3735;50.136;11.062;2023-01-10T03:35:30;4.80;99.90
7388;DHT22;3735;50.136;11.062;2023-01-10T03:38:11;4.80;99.90
7388;DHT22;3735;50.136;11.062;2023-01-10T03:40:55;4.80;99.90
7388;DHT22;3735;50.136;11.062;2023-01-10T03:43:38;4.80;99.90
7388;DHT22;3735;50.136;11.062;2023-01-10T03:46:36;4.70;99.90
7388;DHT22;3735;50.136;11.062;2023-01-10T03:49:12;4.70;99.90
7388;DHT22;3735;50.136;11.062;2023-01-10T03:51:41;4.70;99.90
7388;DHT22;3735;50.136;11.062;2023-01-10T03:54:08;4.80;99.90
7388;DHT22;3735;50.136;11.062;2023-01-10T03:56:47;4.80;99.90
7388;DHT22;3735;50.136;11.062;2023-01-10T03:59:21;4.80;99.90
7388;DHT22;3735;50.136;11.062;2023-01-10T04:01:50;4.80;99.90
7388;DHT22;3735;50.136;11.062;2023-01-10T04:04:16;4.80;99.90
7388;DHT22;3735;50.136;11.062;2023-01-10T04:06:42;4.90;99.90
7388;DHT22;3735;50.136;11.062;2023-01-10T04:09:08;4.90;99.90
7388;DHT22;3735;50.136;11.062;2023-01-10T04:11:34;4.90;99.90
7388;DHT22;3735;50.136;11.062;2023-01-10T04:14:01;4.90;99.90
7388;DHT22;3735;50.136;11.062;2023-01-10T04:16:26;4.80;99.90
7388;DHT22;3735;50.136;11.062;2023-01-10T04:18:52;4.80;99.90
7388;DHT22;3735;50.136;11.062;2023-01-10T04:21:18;4.80;99.90
7388;DHT22;3735;50.136;11.062;2023-01-10T04:23:44;4.80;99.90
7388;DHT22;3735;50.136;11.062;2023-01-10T04:26:09;4.80;99.90
7388;DHT22;3735;50.136;11.062;2023-01-10T04:28:36;4.80;99.90
7388;DHT22;3735;50.136;11.062;2023-01-10T04:31:05;4.80;99.90
7388;DHT22;3735;50.136;11.062;2023-01-10T04:33:31;4.70;99.90
7388;DHT22;3735;50.136;11.062;2023-01-10T04:35:57;4.70;99.90
7388;DHT22;3735;50.136;11.062;2023-01-10T04:38:22;4.60;99.90
7388;DHT22;3735;50.136;11.062;2023-01-10T04:40:53;4.50;99.90
7388;DHT22;3735;50.136;11.062;2023-01-10T04:43:20;4.50;99.90
7388;DHT22;3735;50.136;11.062;2023-01-10T04:45:47;4.50;99.90
7388;DHT22;3735;50.136;11.062;2023-01-10T04:48:12;4.50;99.90
7388;DHT22;3735;50.136;11.062;2023-01-10T04:50:38;4.50;99.90
7388;DHT22;3735;50.136;11.062;2023-01-10T04:53:04;4.60;99.90
7388;DHT22;3735;50.136;11.062;2023-01-10T04:55:31;4.60;99.90
7388;DHT22;3735;50.136;11.062;2023-01-10T04:57:57;4.50;99.90
7388;DHT22;3735;50.136;11.062;2023-01-10T05:00:24;4.40;99.90
7388;DHT22;3735;50.136;11.062;2023-01-10T05:02:54;4.40;99.90
7388;DHT22;3735;50.136;11.062;2023-01-10T05:05:20;4.50;99.90
7388;DHT22;3735;50.136;11.062;2023-01-10T05:07:55;4.50;99.90
7388;DHT22;3735;50.136;11.062;2023-01-10T05:10:21;4.50;99.90
7388;DHT22;3735;50.136;11.062;2023-01-10T05:12:47;4.50;99.90
7388;DHT22;3735;50.136;11.062;2023-01-10T05:15:13;4.60;99.90
7388;DHT22;3735;50.136;11.062;2023-01-10T05:17:42;4.60;99.90
7388;DHT22;3735;50.136;11.062;2023-01-10T05:20:08;4.60;99.90
7388;DHT22;3735;50.136;11.062;2023-01-10T05:22:35;4.60;99.90
7388;DHT22;3735;50.136;11.062;2023-01-10T05:25:00;4.70;99.90
7388;DHT22;3735;50.136;11.062;2023-01-10T05:27:26;4.70;99.90
7388;DHT22;3735;50.136;11.062;2023-01-10T05:29:52;4.70;99.90
7388;DHT22;3735;50.136;11.062;2023-01-10T05:32:18;4.60;99.90
7388;DHT22;3735;50.136;11.062;2023-01-10T05:34:44;4.50;99.90
7388;DHT22;3735;50.136;11.062;2023-01-10T05:37:10;4.50;99.90
7388;DHT22;3735;50.136;11.062;2023-01-10T05:39:35;4.50;99.90
7388;DHT22;3735;50.136;11.062;2023-01-10T05:42:01;4.40;99.90
7388;DHT22;3735;50.136;11.062;2023-01-10T05:44:28;4.40;99.90
7388;DHT22;3735;50.136;11.062;2023-01-10T05:46:54;4.40;99.90
7388;DHT22;3735;50.136;11.062;2023-01-10T05:49:22;4.40;99.90
7388;DHT22;3735;50.136;11.062;2023-01-10T05:51:51;4.30;99.90
7388;DHT22;3735;50.136;11.062;2023-01-10T05:54:17;4.30;99.90
7388;DHT22;3735;50.136;11.062;2023-01-10T05:56:43;4.20;99.90
7388;DHT22;3735;50.136;11.062;2023-01-10T05:59:08;4.20;99.90
7388;DHT22;3735;50.136;11.062;2023-01-10T06:01:34;4.20;99.90
7388;DHT22;3735;50.136;11.062;2023-01-10T06:04:00;4.30;99.90
7388;DHT22;3735;50.136;11.062;2023-01-10T06:06:26;4.30;99.90
7388;DHT22;3735;50.136;11.062;2023-01-10T06:08:58;4.30;99.90
7388;DHT22;3735;50.136;11.062;2023-01-10T06:11:24;4.20;99.90
7388;DHT22;3735;50.136;11.062;2023-01-10T06:13:55;4.10;99.90
7388;DHT22;3735;50.136;11.062;2023-01-10T06:16:21;4.10;99.90
7388;DHT22;3735;50.136;11.062;2023-01-10T06:18:48;4.10;99.90
7388;DHT22;3735;50.136;11.062;2023-01-10T06:21:13;4.10;99.90
7388;DHT22;3735;50.136;11.062;2023-01-10T06:23:39;4.20;99.90
7388;DHT22;3735;50.136;11.062;2023-01-10T06:26:06;4.30;99.90
7388;DHT22;3735;50.136;11.062;2023-01-10T06:28:32;4.40;99.90
7388;DHT22;3735;50.136;11.062;2023-01-10T06:30:58;4.40;99.90
7388;DHT22;3735;50.136;11.062;2023-01-10T06:33:23;4.50;99.90
7388;DHT22;3735;50.136;11.062;2023-01-10T06:35:49;4.50;99.90
7388;DHT22;3735;50.136;11.062;2023-01-10T06:38:15;4.50;99.90
7388;DHT22;3735;50.136;11.062;2023-01-10T06:40:42;4.50;99.90
7388;DHT22;3735;50.136;11.062;2023-01-10T06:43:08;4.50;99.90
7388;DHT22;3735;50.136;11.062;2023-01-10T06:45:34;4.50;99.90
7388;DHT22;3735;50.136;11.062;2023-01-10T06:48:00;4.60;99.90
7388;DHT22;3735;50.136;11.062;2023-01-10T06:50:26;4.60;99.90
7388;DHT22;3735;50.136;11.062;2023-01-10T06:55:22;4.60;99.90
7388;DHT22;3735;50.136;11.062;2023-01-10T06:57:54;4.50;99.90
7388;DHT22;3735;50.136;11.062;2023-01-10T07:00:24;4.50;99.90
7388;DHT22;3735;50.136;11.062;2023-01-10T07:02:52;4.50;99.90
7388;DHT22;3735;50.136;11.062;2023-01-10T07:05:21;4.50;99.90
7388;DHT22;3735;50.136;11.062;2023-01-10T07:07:46;4.50;99.90
7388;DHT22;3735;50.136;11.062;2023-01-10T07:10:13;4.50;99.90
7388;DHT22;3735;50.136;11.062;2023-01-10T07:12:38;4.50;99.90
7388;DHT22;3735;50.136;11.062;2023-01-10T07:15:05;4.40;99.90
7388;DHT22;3735;50.136;11.062;2023-01-10T07:17:31;4.40;99.90
7388;DHT22;3735;50.136;11.062;2023-01-10T07:19:57;4.40;99.90
7388;DHT22;3735;50.136;11.062;2023-01-10T07:22:23;4.50;99.90
7388;DHT22;3735;50.136;11.062;2023-01-10T07:24:49;4.50;99.90
7388;DHT22;3735;50.136;11.062;2023-01-10T07:27:14;4.50;99.90
7388;DHT22;3735;50.136;11.062;2023-01-10T07:29:41;4.50;99.90
7388;DHT22;3735;50.136;11.062;2023-01-10T07:32:07;4.50;99.90
7388;DHT22;3735;50.136;11.062;2023-01-10T07:34:32;4.50;99.90
7388;DHT22;3735;50.136;11.062;2023-01-10T07:36:58;4.50;99.90
7388;DHT22;3735;50.136;11.062;2023-01-10T07:39:25;4.60;99.90
7388;DHT22;3735;50.136;11.062;2023-01-10T07:41:51;4.60;99.90
7388;DHT22;3735;50.136;11.062;2023-01-10T07:44:17;4.60;99.90
7388;DHT22;3735;50.136;11.062;2023-01-10T07:46:43;4.60;99.90
7388;DHT22;3735;50.136;11.062;2023-01-10T07:49:09;4.70;99.90
7388;DHT22;3735;50.136;11.062;2023-01-10T07:51:34;4.70;99.90
7388;DHT22;3735;50.136;11.062;2023-01-10T07:54:00;4.70;99.90
7388;DHT22;3735;50.136;11.062;2023-01-10T07:56:26;4.70;99.90
7388;DHT22;3735;50.136;11.062;2023-01-10T07:58:52;4.80;99.90
7388;DHT22;3735;50.136;11.062;2023-01-10T08:01:17;4.80;99.90
7388;DHT22;3735;50.136;11.062;2023-01-10T08:03:43;4.80;99.90
7388;DHT22;3735;50.136;11.062;2023-01-10T08:06:09;4.80;99.90
7388;DHT22;3735;50.136;11.062;2023-01-10T08:08:35;4.80;99.90
7388;DHT22;3735;50.136;11.062;2023-01-10T08:11:04;4.80;99.90
7388;DHT22;3735;50.136;11.062;2023-01-10T08:13:30;4.90;99.90
7388;DHT22;3735;50.136;11.062;2023-01-10T08:15:57;4.90;99.90
7388;DHT22;3735;50.136;11.062;2023-01-10T08:18:24;5.00;99.90
7388;DHT22;3735;50.136;11.062;2023-01-10T08:20:53;5.00;99.90
7388;DHT22;3735;50.136;11.062;2023-01-10T08:23:20;5.00;99.90
7388;DHT22;3735;50.136;11.062;2023-01-10T08:25:46;4.90;99.90
7388;DHT22;3735;50.136;11.062;2023-01-10T08:28:13;4.90;99.90
7388;DHT22;3735;50.136;11.062;2023-01-10T08:30:39;4.90;99.90
7388;DHT22;3735;50.136;11.062;2023-01-10T08:33:06;5.00;99.90
7388;DHT22;3735;50.136;11.062;2023-01-10T08:35:40;5.00;99.90
7388;DHT22;3735;50.136;11.062;2023-01-10T08:38:08;5.00;99.90
7388;DHT22;3735;50.136;11.062;2023-01-10T08:40:35;5.10;99.90
7388;DHT22;3735;50.136;11.062;2023-01-10T08:43:06;5.10;99.90
7388;DHT22;3735;50.136;11.062;2023-01-10T08:45:35;5.10;99.90
7388;DHT22;3735;50.136;11.062;2023-01-10T08:48:05;5.10;99.90
7388;DHT22;3735;50.136;11.062;2023-01-10T08:50:34;5.10;99.90
7388;DHT22;3735;50.136;11.062;2023-01-10T08:53:00;5.20;99.90
7388;DHT22;3735;50.136;11.062;2023-01-10T08:55:27;5.20;99.90
7388;DHT22;3735;50.136;11.062;2023-01-10T08:57:53;5.20;99.90
7388;DHT22;3735;50.136;11.062;2023-01-10T09:00:19;5.30;99.90
7388;DHT22;3735;50.136;11.062;2023-01-10T09:02:45;5.30;99.90
7388;DHT22;3735;50.136;11.062;2023-01-10T09:05:11;5.30;99.90
7388;DHT22;3735;50.136;11.062;2023-01-10T09:07:37;5.40;99.90
7388;DHT22;3735;50.136;11.062;2023-01-10T09:10:06;5.40;99.90
7388;DHT22;3735;50.136;11.062;2023-01-10T09:12:33;5.40;99.90
7388;DHT22;3735;50.136;11.062;2023-01-10T09:15:17;5.40;99.90
7388;DHT22;3735;50.136;11.062;2023-01-10T09:17:43;5.30;99.90
7388;DHT22;3735;50.136;11.062;2023-01-10T09:20:09;5.30;99.90
7388;DHT22;3735;50.136;11.062;2023-01-10T09:22:36;5.30;99.90
7388;DHT22;3735;50.136;11.062;2023-01-10T09:25:03;5.30;99.90
7388;DHT22;3735;50.136;11.062;2023-01-10T09:27:29;5.30;99.90
7388;DHT22;3735;50.136;11.062;2023-01-10T09:29:55;5.30;99.90
7388;DHT22;3735;50.136;11.062;2023-01-10T09:32:21;5.30;99.90
7388;DHT22;3735;50.136;11.062;2023-01-10T09:34:47;5.30;99.90
7388;DHT22;3735;50.136;11.062;2023-01-10T09:37:12;5.40;99.90
7388;DHT22;3735;50.136;11.062;2023-01-10T09:39:38;5.40;99.90
7388;DHT22;3735;50.136;11.062;2023-01-10T09:50:36;5.60;99.90
7388;DHT22;3735;50.136;11.062;2023-01-10T09:53:13;5.60;99.90
7388;DHT22;3735;50.136;11.062;2023-01-10T09:55:45;5.70;99.90
7388;DHT22;3735;50.136;11.062;2023-01-10T09:58:18;5.70;99.90
7388;DHT22;3735;50.136;11.062;2023-01-10T10:03:29;5.90;99.90
7388;DHT22;3735;50.136;11.062;2023-01-10T10:06:11;6.00;99.90
7388;DHT22;3735;50.136;11.062;2023-01-10T10:08:43;6.00;99.90
7388;DHT22;3735;50.136;11.062;2023-01-10T10:17:07;6.60;99.90
7388;DHT22;3735;50.136;11.062;2023-01-10T10:22:56;6.60;99.90
7388;DHT22;3735;50.136;11.062;2023-01-10T10:37:44;5.90;99.90
7388;DHT22;3735;50.136;11.062;2023-01-10T10:40:17;5.80;99.90
7388;DHT22;3735;50.136;11.062;2023-01-10T10:42:49;5.80;99.90
7388;DHT22;3735;50.136;11.062;2023-01-10T10:48:26;5.70;99.90
7388;DHT22;3735;50.136;11.062;2023-01-10T10:53:31;5.80;99.90
7388;DHT22;3735;50.136;11.062;2023-01-10T10:56:00;5.80;99.90
7388;DHT22;3735;50.136;11.062;2023-01-10T10:58:28;5.90;99.90
7388;DHT22;3735;50.136;11.062;2023-01-10T11:00:57;5.90;99.90
7388;DHT22;3735;50.136;11.062;2023-01-10T11:03:44;6.00;99.90
7388;DHT22;3735;50.136;11.062;2023-01-10T11:06:13;6.10;99.90
7388;DHT22;3735;50.136;11.062;2023-01-10T11:08:43;6.10;99.90
7388;DHT22;3735;50.136;11.062;2023-01-10T11:11:33;6.10;99.90
7388;DHT22;3735;50.136;11.062;2023-01-10T11:14:05;6.20;99.90
7388;DHT22;3735;50.136;11.062;2023-01-10T11:16:36;6.20;99.90
7388;DHT22;3735;50.136;11.062;2023-01-10T11:21:58;6.30;99.90
7388;DHT22;3735;50.136;11.062;2023-01-10T11:24:38;6.40;99.90
7388;DHT22;3735;50.136;11.062;2023-01-10T11:27:17;6.50;99.90
7388;DHT22;3735;50.136;11.062;2023-01-10T11:29:55;6.40;99.90
7388;DHT22;3735;50.136;11.062;2023-01-10T11:33:05;6.40;99.90
7388;DHT22;3735;50.136;11.062;2023-01-10T11:35:36;6.40;99.90
7388;DHT22;3735;50.136;11.062;2023-01-10T11:38:04;6.50;99.90
7388;DHT22;3735;50.136;11.062;2023-01-10T11:40:33;6.50;99.90
7388;DHT22;3735;50.136;11.062;2023-01-10T11:46:14;6.60;99.90
7388;DHT22;3735;50.136;11.062;2023-01-10T11:49:10;6.70;99.90
7388;DHT22;3735;50.136;11.062;2023-01-10T11:51:48;6.60;99.90
7388;DHT22;3735;50.136;11.062;2023-01-10T11:54:23;6.50;99.90
7388;DHT22;3735;50.136;11.062;2023-01-10T11:56:57;6.50;99.90
7388;DHT22;3735;50.136;11.062;2023-01-10T11:59:28;6.40;99.90
7388;DHT22;3735;50.136;11.062;2023-01-10T12:02:10;6.30;99.90
7388;DHT22;3735;50.136;11.062;2023-01-10T12:04:44;6.30;99.90
7388;DHT22;3735;50.136;11.062;2023-01-10T12:07:13;6.40;99.90
7388;DHT22;3735;50.136;11.062;2023-01-10T12:14:46;6.30;99.90
7388;DHT22;3735;50.136;11.062;2023-01-10T12:17:30;6.30;99.90
7388;DHT22;3735;50.136;11.062;2023-01-10T12:20:01;6.20;99.90
7388;DHT22;3735;50.136;11.062;2023-01-10T12:22:39;6.20;99.90
7388;DHT22;3735;50.136;11.062;2023-01-10T12:25:19;6.20;99.90
7388;DHT22;3735;50.136;11.062;2023-01-10T12:27:47;6.20;99.90
7388;DHT22;3735;50.136;11.062;2023-01-10T12:30:39;6.20;99.90
7388;DHT22;3735;50.136;11.062;2023-01-10T12:33:19;6.20;99.90
7388;DHT22;3735;50.136;11.062;2023-01-10T12:36:07;6.30;99.90
7388;DHT22;3735;50.136;11.062;2023-01-10T12:39:18;6.30;99.90
7388;DHT22;3735;50.136;11.062;2023-01-10T12:45:10;6.30;99.90
7388;DHT22;3735;50.136;11.062;2023-01-10T12:50:34;6.20;99.90
7388;DHT22;3735;50.136;11.062;2023-01-10T12:53:30;6.10;99.90
7388;DHT22;3735;50.136;11.062;2023-01-10T12:56:05;5.80;99.90
7388;DHT22;3735;50.136;11.062;2023-01-10T12:58:57;5.60;99.90
7388;DHT22;3735;50.136;11.062;2023-01-10T13:01:30;5.50;99.90
7388;DHT22;3735;50.136;11.062;2023-01-10T13:04:09;5.50;99.90
7388;DHT22;3735;50.136;11.062;2023-01-10T13:06:41;5.40;99.90
7388;DHT22;3735;50.136;11.062;2023-01-10T13:09:15;5.30;99.90
7388;DHT22;3735;50.136;11.062;2023-01-10T13:12:12;5.10;99.90
7388;DHT22;3735;50.136;11.062;2023-01-10T13:18:12;4.90;99.90
7388;DHT22;3735;50.136;11.062;2023-01-10T13:21:08;4.90;99.90
7388;DHT22;3735;50.136;11.062;2023-01-10T13:23:52;5.00;99.90
7388;DHT22;3735;50.136;11.062;2023-01-10T13:26:21;5.00;99.90
7388;DHT22;3735;50.136;11.062;2023-01-10T13:28:58;5.00;99.90
7388;DHT22;3735;50.136;11.062;2023-01-10T13:31:31;5.00;99.90
7388;DHT22;3735;50.136;11.062;2023-01-10T13:34:01;4.90;99.90
7388;DHT22;3735;50.136;11.062;2023-01-10T13:37:02;4.80;99.90
7388;DHT22;3735;50.136;11.062;2023-01-10T13:39:37;4.80;99.90
7388;DHT22;3735;50.136;11.062;2023-01-10T13:42:42;4.90;99.90
7388;DHT22;3735;50.136;11.062;2023-01-10T13:45:28;5.00;99.90
7388;DHT22;3735;50.136;11.062;2023-01-10T13:48:01;5.20;99.90
7388;DHT22;3735;50.136;11.062;2023-01-10T13:50:48;5.30;99.90
7388;DHT22;3735;50.136;11.062;2023-01-10T14:06:19;5.30;99.90
7388;DHT22;3735;50.136;11.062;2023-01-10T14:08:56;5.30;99.90
7388;DHT22;3735;50.136;11.062;2023-01-10T14:14:36;5.20;99.90
7388;DHT22;3735;50.136;11.062;2023-01-10T14:22:37;5.10;99.90
7388;DHT22;3735;50.136;11.062;2023-01-10T14:25:20;5.10;99.90
7388;DHT22;3735;50.136;11.062;2023-01-10T14:27:48;5.00;99.90
7388;DHT22;3735;50.136;11.062;2023-01-10T14:30:21;5.10;99.90
7388;DHT22;3735;50.136;11.062;2023-01-10T14:32:54;5.10;99.90
7388;DHT22;3735;50.136;11.062;2023-01-10T14:35:25;5.10;99.90
7388;DHT22;3735;50.136;11.062;2023-01-10T14:37:57;5.10;99.90
7388;DHT22;3735;50.136;11.062;2023-01-10T14:40:45;5.10;99.90
7388;DHT22;3735;50.136;11.062;2023-01-10T14:43:17;5.10;99.90
7388;DHT22;3735;50.136;11.062;2023-01-10T14:46:01;5.10;99.90
7388;DHT22;3735;50.136;11.062;2023-01-10T14:48:51;5.20;99.90
7388;DHT22;3735;50.136;11.062;2023-01-10T14:51:29;5.20;99.90
7388;DHT22;3735;50.136;11.062;2023-01-10T14:54:08;5.20;99.90
7388;DHT22;3735;50.136;11.062;2023-01-10T14:56:44;5.10;99.90
7388;DHT22;3735;50.136;11.062;2023-01-10T14:59:31;5.10;99.90
7388;DHT22;3735;50.136;11.062;2023-01-10T15:02:22;5.10;99.90
7388;DHT22;3735;50.136;11.062;2023-01-10T15:04:54;5.10;99.90
7388;DHT22;3735;50.136;11.062;2023-01-10T15:07:22;5.20;99.90
7388;DHT22;3735;50.136;11.062;2023-01-10T15:09:51;5.20;99.90
7388;DHT22;3735;50.136;11.062;2023-01-10T15:12:21;5.20;99.90
7388;DHT22;3735;50.136;11.062;2023-01-10T15:14:52;5.10;99.90
7388;DHT22;3735;50.136;11.062;2023-01-10T15:17:25;5.10;99.90
7388;DHT22;3735;50.136;11.062;2023-01-10T15:19:52;5.10;99.90
7388;DHT22;3735;50.136;11.062;2023-01-10T15:22:34;5.10;99.90
7388;DHT22;3735;50.136;11.062;2023-01-10T15:25:28;5.10;99.90
7388;DHT22;3735;50.136;11.062;2023-01-10T15:27:58;5.10;99.90
7388;DHT22;3735;50.136;11.062;2023-01-10T15:30:29;5.10;99.90
7388;DHT22;3735;50.136;11.062;2023-01-10T15:33:09;5.00;99.90
7388;DHT22;3735;50.136;11.062;2023-01-10T15:35:41;5.00;99.90
7388;DHT22;3735;50.136;11.062;2023-01-10T15:38:20;5.00;99.90
7388;DHT22;3735;50.136;11.062;2023-01-10T15:41:01;4.90;99.90
7388;DHT22;3735;50.136;11.062;2023-01-10T15:43:34;4.80;99.90
7388;DHT22;3735;50.136;11.062;2023-01-10T15:46:04;4.80;99.90
7388;DHT22;3735;50.136;11.062;2023-01-10T15:48:35;4.70;99.90
7388;DHT22;3735;50.136;11.062;2023-01-10T15:56:29;4.50;99.90
7388;DHT22;3735;50.136;11.062;2023-01-10T15:59:03;4.50;99.90
7388;DHT22;3735;50.136;11.062;2023-01-10T16:02:04;4.40;99.90
7388;DHT22;3735;50.136;11.062;2023-01-10T16:04:37;4.30;99.90
7388;DHT22;3735;50.136;11.062;2023-01-10T16:10:03;4.20;99.90
7388;DHT22;3735;50.136;11.062;2023-01-10T16:12:34;4.10;99.90
7388;DHT22;3735;50.136;11.062;2023-01-10T16:15:26;4.10;99.90
7388;DHT22;3735;50.136;11.062;2023-01-10T16:17:56;4.10;99.90
7388;DHT22;3735;50.136;11.062;2023-01-10T16:20:45;4.10;99.90
7388;DHT22;3735;50.136;11.062;2023-01-10T16:23:18;4.00;99.90
7388;DHT22;3735;50.136;11.062;2023-01-10T16:25:50;4.00;99.90
7388;DHT22;3735;50.136;11.062;2023-01-10T16:28:19;4.10;99.90
7388;DHT22;3735;50.136;11.062;2023-01-10T16:30:46;4.10;99.90
7388;DHT22;3735;50.136;11.062;2023-01-10T16:33:18;4.20;99.90
7388;DHT22;3735;50.136;11.062;2023-01-10T16:35:49;4.10;99.90
7388;DHT22;3735;50.136;11.062;2023-01-10T16:38:17;4.10;99.90
7388;DHT22;3735;50.136;11.062;2023-01-10T16:41:01;4.10;99.90
7388;DHT22;3735;50.136;11.062;2023-01-10T16:43:48;4.10;99.90
7388;DHT22;3735;50.136;11.062;2023-01-10T16:46:14;4.10;99.90
7388;DHT22;3735;50.136;11.062;2023-01-10T16:48:40;4.10;99.90
7388;DHT22;3735;50.136;11.062;2023-01-10T16:51:38;4.20;99.90
7388;DHT22;3735;50.136;11.062;2023-01-10T16:54:04;4.10;99.90
7388;DHT22;3735;50.136;11.062;2023-01-10T16:56:30;4.10;99.90
7388;DHT22;3735;50.136;11.062;2023-01-10T16:58:56;4.10;99.90
7388;DHT22;3735;50.136;11.062;2023-01-10T17:01:26;4.10;99.90
7388;DHT22;3735;50.136;11.062;2023-01-10T17:03:56;4.00;99.90
7388;DHT22;3735;50.136;11.062;2023-01-10T17:06:22;4.00;99.90
7388;DHT22;3735;50.136;11.062;2023-01-10T17:08:48;3.80;99.90
7388;DHT22;3735;50.136;11.062;2023-01-10T17:11:16;3.70;99.90
7388;DHT22;3735;50.136;11.062;2023-01-10T17:13:46;3.70;99.90
7388;DHT22;3735;50.136;11.062;2023-01-10T17:16:13;3.80;99.90
7388;DHT22;3735;50.136;11.062;2023-01-10T17:18:40;3.80;99.90
7388;DHT22;3735;50.136;11.062;2023-01-10T17:21:13;3.80;99.90
7388;DHT22;3735;50.136;11.062;2023-01-10T17:23:41;3.80;99.90
7388;DHT22;3735;50.136;11.062;2023-01-10T17:26:08;3.80;99.90
7388;DHT22;3735;50.136;11.062;2023-01-10T17:28:35;3.80;99.90
7388;DHT22;3735;50.136;11.062;2023-01-10T17:31:01;3.90;99.90
7388;DHT22;3735;50.136;11.062;2023-01-10T17:33:27;3.90;99.90
7388;DHT22;3735;50.136;11.062;2023-01-10T17:35:55;3.90;99.90
7388;DHT22;3735;50.136;11.062;2023-01-10T17:38:22;3.90;99.90
7388;DHT22;3735;50.136;11.062;2023-01-10T17:40:50;4.00;99.90
7388;DHT22;3735;50.136;11.062;2023-01-10T17:43:18;4.00;99.90
7388;DHT22;3735;50.136;11.062;2023-01-10T17:45:47;4.00;99.90
7388;DHT22;3735;50.136;11.062;2023-01-10T17:48:15;4.10;99.90
7388;DHT22;3735;50.136;11.062;2023-01-10T17:50:46;4.00;99.90
7388;DHT22;3735;50.136;11.062;2023-01-10T17:53:13;4.00;99.90
7388;DHT22;3735;50.136;11.062;2023-01-10T17:55:45;4.00;99.90
7388;DHT22;3735;50.136;11.062;2023-01-10T17:58:12;4.00;99.90
7388;DHT22;3735;50.136;11.062;2023-01-10T18:00:38;4.00;99.90
7388;DHT22;3735;50.136;11.062;2023-01-10T18:03:04;3.90;99.90
7388;DHT22;3735;50.136;11.062;2023-01-10T18:05:30;3.90;99.90
7388;DHT22;3735;50.136;11.062;2023-01-10T18:07:57;3.90;99.90
7388;DHT22;3735;50.136;11.062;2023-01-10T18:10:23;3.90;99.90
7388;DHT22;3735;50.136;11.062;2023-01-10T18:12:51;4.00;99.90
7388;DHT22;3735;50.136;11.062;2023-01-10T18:15:17;4.00;99.90
7388;DHT22;3735;50.136;11.062;2023-01-10T18:17:43;3.90;99.90
7388;DHT22;3735;50.136;11.062;2023-01-10T18:20:10;3.80;99.90
7388;DHT22;3735;50.136;11.062;2023-01-10T18:22:39;3.80;99.90
7388;DHT22;3735;50.136;11.062;2023-01-10T18:25:24;3.80;99.90
7388;DHT22;3735;50.136;11.062;2023-01-10T18:27:50;3.90;99.90
7388;DHT22;3735;50.136;11.062;2023-01-10T18:30:20;3.90;99.90
7388;DHT22;3735;50.136;11.062;2023-01-10T18:32:51;4.10;99.90
7388;DHT22;3735;50.136;11.062;2023-01-10T18:35:18;4.10;99.90
7388;DHT22;3735;50.136;11.062;2023-01-10T18:37:45;4.10;99.90
7388;DHT22;3735;50.136;11.062;2023-01-10T18:40:11;4.10;99.90
7388;DHT22;3735;50.136;11.062;2023-01-10T18:42:38;4.10;99.90